sensor_id;sensor_type;location;lat;lon;timestamp;pressure;altitude;pressure_sealevel;temperature;humidity
59531;BME280;45349;48.692;8.186;2023-04-26T00:02:10;98763.16;;;4.90;100.00
59531;BME280;45349;48.692;8.186;2023-04-26T00:04:37;98766.03;;;4.74;100.00
59531;BME280;45349;48.692;8.186;2023-04-26T00:07:04;98761.66;;;4.63;100.00
59531;BME280;45349;48.692;8.186;2023-04-26T00:09:30;98751.13;;;4.53;100.00
59531;BME280;45349;48.692;8.186;2023-04-26T00:11:57;98753.44;;;4.45;100.00
59531;BME280;45349;48.692;8.186;2023-04-26T00:14:25;98748.59;;;4.40;100.00
59531;BME280;45349;48.692;8.186;2023-04-26T00:16:52;98739.84;;;4.30;100.00
59531;BME280;45349;48.692;8.186;2023-04-26T00:19:18;98738.50;;;4.24;100.00
59531;BME280;45349;48.692;8.186;2023-04-26T00:21:45;98744.38;;;4.26;100.00
59531;BME280;45349;48.692;8.186;2023-04-26T00:24:12;98742.41;;;4.30;100.00
59531;BME280;45349;48.692;8.186;2023-04-26T00:26:38;98739.13;;;4.28;100.00
59531;BME280;45349;48.692;8.186;2023-04-26T00:29:05;98736.38;;;4.18;100.00
59531;BME280;45349;48.692;8.186;2023-04-26T00:31:33;98739.59;;;4.09;100.00
59531;BME280;45349;48.692;8.186;2023-04-26T00:33:59;98732.25;;;4.03;100.00
59531;BME280;45349;48.692;8.186;2023-04-26T00:36:26;98738.28;;;3.90;100.00
59531;BME280;45349;48.692;8.186;2023-04-26T00:38:53;98732.59;;;3.85;100.00
59531;BME280;45349;48.692;8.186;2023-04-26T00:41:19;98732.38;;;3.75;100.00
59531;BME280;45349;48.692;8.186;2023-04-26T00:43:46;98733.44;;;3.73;100.00
59531;BME280;45349;48.692;8.186;2023-04-26T00:46:12;98732.50;;;3.74;100.00
59531;BME280;45349;48.692;8.186;2023-04-26T00:48:41;98732.72;;;3.71;100.00
59531;BME280;45349;48.692;8.186;2023-04-26T00:51:08;98736.44;;;3.66;100.00
59531;BME280;45349;48.692;8.186;2023-04-26T00:53:35;98742.63;;;3.64;100.00
59531;BME280;45349;48.692;8.186;2023-04-26T00:56:02;98745.63;;;3.58;100.00
59531;BME280;45349;48.692;8.186;2023-04-26T00:58:29;98751.59;;;3.58;100.00
59531;BME280;45349;48.692;8.186;2023-04-26T01:00:55;98754.59;;;3.52;100.00
59531;BME280;45349;48.692;8.186;2023-04-26T01:03:22;98750.28;;;3.52;100.00
59531;BME280;45349;48.692;8.186;2023-04-26T01:05:51;98758.44;;;3.46;100.00
59531;BME280;45349;48.692;8.186;2023-04-26T01:08:18;98757.19;;;3.39;100.00
59531;BME280;45349;48.692;8.186;2023-04-26T01:10:46;98756.66;;;3.34;100.00
59531;BME280;45349;48.692;8.186;2023-04-26T01:13:12;98750.13;;;3.28;100.00
59531;BME280;45349;48.692;8.186;2023-04-26T01:15:42;98757.38;;;3.36;100.00
59531;BME280;45349;48.692;8.186;2023-04-26T01:18:10;98758.31;;;3.35;100.00
59531;BME280;45349;48.692;8.186;2023-04-26T01:20:36;98757.88;;;3.28;100.00
59531;BME280;45349;48.692;8.186;2023-04-26T01:23:04;98754.03;;;3.21;100.00
59531;BME280;45349;48.692;8.186;2023-04-26T01:25:31;98750.75;;;3.19;100.00
59531;BME280;45349;48.692;8.186;2023-04-26T01:28:00;98753.94;;;3.09;100.00
59531;BME280;45349;48.692;8.186;2023-04-26T01:30:26;98750.63;;;3.07;100.00
59531;BME280;45349;48.692;8.186;2023-04-26T01:32:53;98753.22;;;3.07;100.00
59531;BME280;45349;48.692;8.186;2023-04-26T01:35:19;98750.72;;;3.06;100.00
59531;BME280;45349;48.692;8.186;2023-04-26T01:37:46;98747.94;;;3.09;100.00
59531;BME280;45349;48.692;8.186;2023-04-26T01:40:14;98742.59;;;3.12;100.00
59531;BME280;45349;48.692;8.186;2023-04-26T01:42:41;98751.16;;;3.13;100.00
59531;BME280;45349;48.692;8.186;2023-04-26T01:45:08;98757.13;;;3.13;100.00
59531;BME280;45349;48.692;8.186;2023-04-26T01:47:54;98752.91;;;3.12;100.00
59531;BME280;45349;48.692;8.186;2023-04-26T01:50:20;98752.09;;;3.12;100.00
59531;BME280;45349;48.692;8.186;2023-04-26T01:52:47;98758.59;;;3.17;100.00
59531;BME280;45349;48.692;8.186;2023-04-26T01:55:15;98757.06;;;3.15;100.00
59531;BME280;45349;48.692;8.186;2023-04-26T01:57:41;98761.38;;;3.14;100.00
59531;BME280;45349;48.692;8.186;2023-04-26T02:00:09;98755.19;;;3.17;100.00
59531;BME280;45349;48.692;8.186;2023-04-26T02:02:41;98760.44;;;3.15;100.00
59531;BME280;45349;48.692;8.186;2023-04-26T02:05:10;98763.13;;;3.14;100.00
59531;BME280;45349;48.692;8.186;2023-04-26T02:07:37;98757.06;;;3.15;100.00
59531;BME280;45349;48.692;8.186;2023-04-26T02:10:04;98756.13;;;3.16;100.00
59531;BME280;45349;48.692;8.186;2023-04-26T02:12:33;98758.06;;;3.12;100.00
59531;BME280;45349;48.692;8.186;2023-04-26T02:14:59;98762.50;;;3.10;100.00
59531;BME280;45349;48.692;8.186;2023-04-26T02:17:26;98768.91;;;3.04;100.00
59531;BME280;45349;48.692;8.186;2023-04-26T02:19:54;98767.63;;;2.97;100.00
59531;BME280;45349;48.692;8.186;2023-04-26T02:22:20;98766.56;;;2.87;100.00
59531;BME280;45349;48.692;8.186;2023-04-26T02:24:52;98769.03;;;2.88;100.00
59531;BME280;45349;48.692;8.186;2023-04-26T02:27:18;98765.19;;;2.81;100.00
59531;BME280;45349;48.692;8.186;2023-04-26T02:30:11;98764.66;;;2.76;100.00
59531;BME280;45349;48.692;8.186;2023-04-26T02:32:38;98766.16;;;2.65;100.00
59531;BME280;45349;48.692;8.186;2023-04-26T02:35:06;98766.47;;;2.61;100.00
59531;BME280;45349;48.692;8.186;2023-04-26T02:37:34;98762.72;;;2.52;100.00
59531;BME280;45349;48.692;8.186;2023-04-26T02:40:01;98772.94;;;2.54;100.00
59531;BME280;45349;48.692;8.186;2023-04-26T02:42:29;98778.19;;;2.52;100.00
59531;BME280;45349;48.692;8.186;2023-04-26T02:44:56;98776.00;;;2.46;100.00
59531;BME280;45349;48.692;8.186;2023-04-26T02:47:24;98775.16;;;2.45;100.00
59531;BME280;45349;48.692;8.186;2023-04-26T02:49:52;98768.25;;;2.46;100.00
59531;BME280;45349;48.692;8.186;2023-04-26T02:52:19;98768.47;;;2.43;100.00
59531;BME280;45349;48.692;8.186;2023-04-26T02:55:10;98765.97;;;2.41;100.00
59531;BME280;45349;48.692;8.186;2023-04-26T02:57:37;98766.53;;;2.32;100.00
59531;BME280;45349;48.692;8.186;2023-04-26T03:00:06;98759.63;;;2.32;100.00
59531;BME280;45349;48.692;8.186;2023-04-26T03:02:35;98755.03;;;2.38;100.00
59531;BME280;45349;48.692;8.186;2023-04-26T03:05:02;98756.31;;;2.45;100.00
59531;BME280;45349;48.692;8.186;2023-04-26T03:07:29;98763.13;;;2.46;100.00
59531;BME280;45349;48.692;8.186;2023-04-26T03:09:57;98758.38;;;2.53;100.00
59531;BME280;45349;48.692;8.186;2023-04-26T03:12:24;98754.88;;;2.54;100.00
59531;BME280;45349;48.692;8.186;2023-04-26T03:14:52;98754.50;;;2.60;100.00
59531;BME280;45349;48.692;8.186;2023-04-26T03:17:19;98757.00;;;2.61;100.00
59531;BME280;45349;48.692;8.186;2023-04-26T03:19:54;98759.81;;;2.71;100.00
59531;BME280;45349;48.692;8.186;2023-04-26T03:22:20;98751.78;;;2.76;100.00
59531;BME280;45349;48.692;8.186;2023-04-26T03:24:52;98753.34;;;2.78;100.00
59531;BME280;45349;48.692;8.186;2023-04-26T03:27:18;98749.44;;;2.86;100.00
59531;BME280;45349;48.692;8.186;2023-04-26T03:32:52;98746.53;;;2.77;100.00
59531;BME280;45349;48.692;8.186;2023-04-26T03:35:20;98755.28;;;2.75;100.00
59531;BME280;45349;48.692;8.186;2023-04-26T03:37:47;98747.31;;;2.65;100.00
59531;BME280;45349;48.692;8.186;2023-04-26T03:40:15;98752.97;;;2.57;100.00
59531;BME280;45349;48.692;8.186;2023-04-26T03:42:43;98747.47;;;2.49;100.00
59531;BME280;45349;48.692;8.186;2023-04-26T03:45:10;98743.50;;;2.43;100.00
59531;BME280;45349;48.692;8.186;2023-04-26T03:47:37;98744.16;;;2.47;100.00
59531;BME280;45349;48.692;8.186;2023-04-26T03:50:04;98746.72;;;2.47;100.00
59531;BME280;45349;48.692;8.186;2023-04-26T03:52:32;98742.78;;;2.41;100.00
59531;BME280;45349;48.692;8.186;2023-04-26T03:54:59;98735.63;;;2.32;100.00
59531;BME280;45349;48.692;8.186;2023-04-26T03:57:26;98734.53;;;2.21;100.00
59531;BME280;45349;48.692;8.186;2023-04-26T03:59:53;98730.22;;;2.22;100.00
59531;BME280;45349;48.692;8.186;2023-04-26T04:02:20;98737.22;;;2.20;100.00
59531;BME280;45349;48.692;8.186;2023-04-26T04:04:52;98728.22;;;2.13;100.00
59531;BME280;45349;48.692;8.186;2023-04-26T04:07:18;98726.66;;;2.10;100.00
59531;BME280;45349;48.692;8.186;2023-04-26T04:10:11;98730.16;;;2.09;100.00
59531;BME280;45349;48.692;8.186;2023-04-26T04:12:40;98727.59;;;2.09;100.00
59531;BME280;45349;48.692;8.186;2023-04-26T04:15:08;98729.63;;;2.04;100.00
59531;BME280;45349;48.692;8.186;2023-04-26T04:17:40;98732.19;;;2.04;100.00
59531;BME280;45349;48.692;8.186;2023-04-26T04:20:07;98725.00;;;2.09;100.00
59531;BME280;45349;48.692;8.186;2023-04-26T04:22:34;98728.59;;;2.06;100.00
59531;BME280;45349;48.692;8.186;2023-04-26T04:25:03;98730.25;;;2.08;100.00
59531;BME280;45349;48.692;8.186;2023-04-26T04:27:32;98724.16;;;2.09;100.00
59531;BME280;45349;48.692;8.186;2023-04-26T04:29:59;98732.34;;;2.15;100.00
59531;BME280;45349;48.692;8.186;2023-04-26T04:32:28;98730.78;;;2.13;100.00
59531;BME280;45349;48.692;8.186;2023-04-26T04:34:57;98728.03;;;2.16;100.00
59531;BME280;45349;48.692;8.186;2023-04-26T04:37:23;98736.47;;;2.18;100.00
59531;BME280;45349;48.692;8.186;2023-04-26T04:39:52;98741.88;;;2.28;100.00
59531;BME280;45349;48.692;8.186;2023-04-26T04:42:19;98742.25;;;2.21;100.00
59531;BME280;45349;48.692;8.186;2023-04-26T04:45:11;98742.38;;;2.20;100.00
59531;BME280;45349;48.692;8.186;2023-04-26T04:47:39;98748.31;;;2.20;100.00
59531;BME280;45349;48.692;8.186;2023-04-26T04:50:07;98743.09;;;2.22;100.00
59531;BME280;45349;48.692;8.186;2023-04-26T04:52:34;98745.19;;;2.30;100.00
59531;BME280;45349;48.692;8.186;2023-04-26T04:55:01;98748.41;;;2.33;100.00
59531;BME280;45349;48.692;8.186;2023-04-26T04:57:28;98756.13;;;2.48;100.00
59531;BME280;45349;48.692;8.186;2023-04-26T04:59:55;98756.72;;;2.51;100.00
59531;BME280;45349;48.692;8.186;2023-04-26T05:02:23;98756.34;;;2.58;100.00
59531;BME280;45349;48.692;8.186;2023-04-26T05:04:52;98762.88;;;2.63;100.00
59531;BME280;45349;48.692;8.186;2023-04-26T05:07:20;98755.47;;;2.72;100.00
59531;BME280;45349;48.692;8.186;2023-04-26T05:09:52;98754.16;;;2.79;100.00
59531;BME280;45349;48.692;8.186;2023-04-26T05:12:19;98753.47;;;2.90;100.00
59531;BME280;45349;48.692;8.186;2023-04-26T05:14:53;98758.03;;;2.99;100.00
59531;BME280;45349;48.692;8.186;2023-04-26T05:17:19;98764.25;;;3.09;100.00
59531;BME280;45349;48.692;8.186;2023-04-26T05:19:53;98767.16;;;3.18;100.00
59531;BME280;45349;48.692;8.186;2023-04-26T05:22:20;98772.00;;;3.22;100.00
59531;BME280;45349;48.692;8.186;2023-04-26T05:24:52;98773.56;;;3.25;100.00
59531;BME280;45349;48.692;8.186;2023-04-26T05:27:19;98774.91;;;3.31;100.00
59531;BME280;45349;48.692;8.186;2023-04-26T05:30:11;98767.91;;;3.33;100.00
59531;BME280;45349;48.692;8.186;2023-04-26T05:33:10;98770.38;;;3.34;100.00
59531;BME280;45349;48.692;8.186;2023-04-26T05:35:49;98775.25;;;3.39;100.00
59531;BME280;45349;48.692;8.186;2023-04-26T05:38:17;98770.16;;;3.37;100.00
59531;BME280;45349;48.692;8.186;2023-04-26T05:40:44;98775.13;;;3.40;100.00
59531;BME280;45349;48.692;8.186;2023-04-26T05:43:12;98773.38;;;3.41;100.00
59531;BME280;45349;48.692;8.186;2023-04-26T05:45:39;98770.59;;;3.44;100.00
59531;BME280;45349;48.692;8.186;2023-04-26T05:48:15;98772.16;;;3.47;100.00
59531;BME280;45349;48.692;8.186;2023-04-26T05:50:41;98780.41;;;3.52;100.00
59531;BME280;45349;48.692;8.186;2023-04-26T05:53:09;98782.06;;;3.53;100.00
59531;BME280;45349;48.692;8.186;2023-04-26T05:55:36;98785.28;;;3.57;100.00
59531;BME280;45349;48.692;8.186;2023-04-26T05:58:02;98789.41;;;3.59;100.00
59531;BME280;45349;48.692;8.186;2023-04-26T06:00:29;98789.00;;;3.65;100.00
59531;BME280;45349;48.692;8.186;2023-04-26T06:02:57;98795.00;;;3.79;100.00
59531;BME280;45349;48.692;8.186;2023-04-26T06:05:24;98802.19;;;3.87;100.00
59531;BME280;45349;48.692;8.186;2023-04-26T06:07:51;98804.47;;;4.04;100.00
59531;BME280;45349;48.692;8.186;2023-04-26T06:10:20;98807.44;;;4.24;100.00
59531;BME280;45349;48.692;8.186;2023-04-26T06:12:46;98812.78;;;4.47;100.00
59531;BME280;45349;48.692;8.186;2023-04-26T06:15:15;98808.91;;;4.65;100.00
59531;BME280;45349;48.692;8.186;2023-04-26T06:17:42;98806.63;;;4.85;100.00
59531;BME280;45349;48.692;8.186;2023-04-26T06:20:09;98805.06;;;4.95;100.00
59531;BME280;45349;48.692;8.186;2023-04-26T06:22:36;98804.13;;;5.21;100.00
59531;BME280;45349;48.692;8.186;2023-04-26T06:25:04;98802.97;;;5.36;100.00
59531;BME280;45349;48.692;8.186;2023-04-26T06:27:35;98808.88;;;5.50;100.00
59531;BME280;45349;48.692;8.186;2023-04-26T06:30:04;98814.81;;;5.63;100.00
59531;BME280;45349;48.692;8.186;2023-04-26T06:32:33;98813.53;;;5.69;100.00
59531;BME280;45349;48.692;8.186;2023-04-26T06:34:59;98813.38;;;5.59;100.00
59531;BME280;45349;48.692;8.186;2023-04-26T06:37:26;98811.88;;;5.68;100.00
59531;BME280;45349;48.692;8.186;2023-04-26T06:39:53;98813.66;;;5.79;100.00
59531;BME280;45349;48.692;8.186;2023-04-26T06:42:20;98815.44;;;5.89;100.00
59531;BME280;45349;48.692;8.186;2023-04-26T06:45:13;98820.06;;;5.97;100.00
59531;BME280;45349;48.692;8.186;2023-04-26T06:47:39;98820.19;;;6.07;100.00
59531;BME280;45349;48.692;8.186;2023-04-26T06:50:07;98808.78;;;6.10;100.00
59531;BME280;45349;48.692;8.186;2023-04-26T06:52:34;98805.59;;;6.06;100.00
59531;BME280;45349;48.692;8.186;2023-04-26T06:55:01;98810.28;;;6.12;100.00
59531;BME280;45349;48.692;8.186;2023-04-26T06:57:28;98798.41;;;6.21;100.00
59531;BME280;45349;48.692;8.186;2023-04-26T06:59:54;98794.66;;;6.25;100.00
59531;BME280;45349;48.692;8.186;2023-04-26T07:02:22;98793.47;;;6.18;100.00
59531;BME280;45349;48.692;8.186;2023-04-26T07:04:52;98794.66;;;6.25;100.00
59531;BME280;45349;48.692;8.186;2023-04-26T07:07:19;98787.09;;;6.22;100.00
59531;BME280;45349;48.692;8.186;2023-04-26T07:10:11;98784.28;;;6.25;100.00
59531;BME280;45349;48.692;8.186;2023-04-26T07:12:38;98781.56;;;6.27;100.00
59531;BME280;45349;48.692;8.186;2023-04-26T07:15:06;98784.00;;;6.40;100.00
59531;BME280;45349;48.692;8.186;2023-04-26T07:17:35;98786.44;;;6.64;100.00
59531;BME280;45349;48.692;8.186;2023-04-26T07:20:01;98787.19;;;6.87;100.00
59531;BME280;45349;48.692;8.186;2023-04-26T07:22:28;98788.75;;;7.11;100.00
59531;BME280;45349;48.692;8.186;2023-04-26T07:24:55;98787.56;;;7.36;100.00
59531;BME280;45349;48.692;8.186;2023-04-26T07:27:22;98789.53;;;7.44;100.00
59531;BME280;45349;48.692;8.186;2023-04-26T07:29:53;98784.84;;;7.59;100.00
59531;BME280;45349;48.692;8.186;2023-04-26T07:32:20;98798.59;;;7.71;100.00
59531;BME280;45349;48.692;8.186;2023-04-26T07:34:53;98789.09;;;7.60;97.71
59531;BME280;45349;48.692;8.186;2023-04-26T07:37:20;98800.50;;;7.48;98.41
59531;BME280;45349;48.692;8.186;2023-04-26T07:39:52;98798.72;;;7.48;100.00
59531;BME280;45349;48.692;8.186;2023-04-26T07:42:18;98798.47;;;7.51;100.00
59531;BME280;45349;48.692;8.186;2023-04-26T07:44:49;98802.34;;;7.57;100.00
59531;BME280;45349;48.692;8.186;2023-04-26T07:47:15;98797.84;;;7.38;100.00
59531;BME280;45349;48.692;8.186;2023-04-26T07:49:42;98792.25;;;7.43;100.00
59531;BME280;45349;48.692;8.186;2023-04-26T07:52:10;98796.38;;;7.45;100.00
59531;BME280;45349;48.692;8.186;2023-04-26T07:54:36;98798.84;;;7.68;100.00
59531;BME280;45349;48.692;8.186;2023-04-26T07:57:04;98800.44;;;7.59;100.00
59531;BME280;45349;48.692;8.186;2023-04-26T07:59:31;98798.22;;;7.54;100.00
59531;BME280;45349;48.692;8.186;2023-04-26T08:01:57;98805.88;;;7.56;100.00
59531;BME280;45349;48.692;8.186;2023-04-26T08:04:30;98802.25;;;7.47;100.00
59531;BME280;45349;48.692;8.186;2023-04-26T08:06:58;98798.22;;;7.33;100.00
59531;BME280;45349;48.692;8.186;2023-04-26T08:09:27;98800.81;;;7.54;100.00
59531;BME280;45349;48.692;8.186;2023-04-26T08:11:55;98807.03;;;7.63;100.00
59531;BME280;45349;48.692;8.186;2023-04-26T08:14:21;98808.09;;;7.82;100.00
59531;BME280;45349;48.692;8.186;2023-04-26T08:16:48;98809.25;;;7.99;100.00
59531;BME280;45349;48.692;8.186;2023-04-26T08:19:15;98806.16;;;8.05;100.00
59531;BME280;45349;48.692;8.186;2023-04-26T08:21:42;98811.03;;;7.98;100.00
59531;BME280;45349;48.692;8.186;2023-04-26T08:24:08;98815.41;;;7.98;100.00
59531;BME280;45349;48.692;8.186;2023-04-26T08:26:36;98816.22;;;7.98;100.00
59531;BME280;45349;48.692;8.186;2023-04-26T08:29:03;98815.19;;;8.11;100.00
59531;BME280;45349;48.692;8.186;2023-04-26T08:31:29;98826.34;;;8.23;100.00
59531;BME280;45349;48.692;8.186;2023-04-26T08:33:56;98813.78;;;8.28;100.00
59531;BME280;45349;48.692;8.186;2023-04-26T08:36:22;98812.19;;;8.47;100.00
59531;BME280;45349;48.692;8.186;2023-04-26T08:38:49;98814.59;;;8.69;100.00
59531;BME280;45349;48.692;8.186;2023-04-26T08:41:20;98809.72;;;8.96;100.00
59531;BME280;45349;48.692;8.186;2023-04-26T08:43:50;98816.53;;;9.16;97.85
59531;BME280;45349;48.692;8.186;2023-04-26T08:46:18;98817.91;;;9.50;96.50
59531;BME280;45349;48.692;8.186;2023-04-26T08:48:50;98816.50;;;9.75;91.43
59531;BME280;45349;48.692;8.186;2023-04-26T08:51:20;98807.09;;;10.02;91.89
59531;BME280;45349;48.692;8.186;2023-04-26T08:53:48;98807.94;;;10.31;92.58
59531;BME280;45349;48.692;8.186;2023-04-26T08:56:17;98808.97;;;10.48;88.49
59531;BME280;45349;48.692;8.186;2023-04-26T08:58:43;98809.44;;;10.61;88.70
59531;BME280;45349;48.692;8.186;2023-04-26T09:01:13;98807.19;;;10.95;89.40
59531;BME280;45349;48.692;8.186;2023-04-26T09:03:40;98804.53;;;11.31;86.53
59531;BME280;45349;48.692;8.186;2023-04-26T09:06:07;98803.91;;;11.81;82.96
59531;BME280;45349;48.692;8.186;2023-04-26T09:08:35;98801.97;;;12.10;72.81
59531;BME280;45349;48.692;8.186;2023-04-26T09:11:04;98805.84;;;12.40;68.73
59531;BME280;45349;48.692;8.186;2023-04-26T09:13:31;98799.56;;;12.68;69.18
59531;BME280;45349;48.692;8.186;2023-04-26T09:15:57;98801.28;;;12.08;67.16
59531;BME280;45349;48.692;8.186;2023-04-26T09:18:25;98798.91;;;12.15;63.80
59531;BME280;45349;48.692;8.186;2023-04-26T09:21:03;98803.78;;;12.09;62.98
59531;BME280;45349;48.692;8.186;2023-04-26T09:23:30;98800.00;;;12.55;64.13
59531;BME280;45349;48.692;8.186;2023-04-26T09:26:15;98803.06;;;12.34;61.82
59531;BME280;45349;48.692;8.186;2023-04-26T09:28:42;98803.59;;;12.11;63.15
59531;BME280;45349;48.692;8.186;2023-04-26T09:31:10;98805.38;;;11.31;68.63
59531;BME280;45349;48.692;8.186;2023-04-26T09:33:56;98793.81;;;11.16;68.16
59531;BME280;45349;48.692;8.186;2023-04-26T09:36:23;98810.06;;;11.46;67.01
59531;BME280;45349;48.692;8.186;2023-04-26T09:38:49;98794.69;;;11.43;66.88
59531;BME280;45349;48.692;8.186;2023-04-26T09:41:16;98789.44;;;11.43;65.73
59531;BME280;45349;48.692;8.186;2023-04-26T09:43:42;98792.13;;;11.33;65.14
59531;BME280;45349;48.692;8.186;2023-04-26T09:46:09;98791.72;;;11.01;67.26
59531;BME280;45349;48.692;8.186;2023-04-26T09:48:35;98785.28;;;10.77;68.50
59531;BME280;45349;48.692;8.186;2023-04-26T09:51:09;98794.75;;;10.78;67.13
59531;BME280;45349;48.692;8.186;2023-04-26T09:53:37;98800.72;;;10.71;69.14
59531;BME280;45349;48.692;8.186;2023-04-26T09:56:08;98789.06;;;10.65;69.29
59531;BME280;45349;48.692;8.186;2023-04-26T09:58:36;98792.03;;;10.52;71.06
59531;BME280;45349;48.692;8.186;2023-04-26T10:01:03;98789.75;;;10.67;72.83
59531;BME280;45349;48.692;8.186;2023-04-26T10:03:32;98787.75;;;10.79;67.21
59531;BME280;45349;48.692;8.186;2023-04-26T10:05:59;98794.34;;;10.83;67.69
59531;BME280;45349;48.692;8.186;2023-04-26T10:08:27;98788.28;;;10.83;66.88
59531;BME280;45349;48.692;8.186;2023-04-26T10:10:55;98786.03;;;10.88;66.18
59531;BME280;45349;48.692;8.186;2023-04-26T10:13:21;98784.84;;;11.00;69.23
59531;BME280;45349;48.692;8.186;2023-04-26T10:15:49;98792.47;;;11.12;68.42
59531;BME280;45349;48.692;8.186;2023-04-26T10:18:15;98790.34;;;11.15;65.46
59531;BME280;45349;48.692;8.186;2023-04-26T10:20:44;98792.50;;;11.56;60.86
59531;BME280;45349;48.692;8.186;2023-04-26T10:23:16;98791.19;;;11.87;58.96
59531;BME280;45349;48.692;8.186;2023-04-26T10:25:47;98780.88;;;11.59;58.63
59531;BME280;45349;48.692;8.186;2023-04-26T10:28:14;98787.41;;;12.50;56.80
59531;BME280;45349;48.692;8.186;2023-04-26T10:30:54;98781.91;;;12.95;55.00
59531;BME280;45349;48.692;8.186;2023-04-26T10:33:22;98780.28;;;13.27;56.45
59531;BME280;45349;48.692;8.186;2023-04-26T10:36:02;98785.97;;;13.88;57.27
59531;BME280;45349;48.692;8.186;2023-04-26T10:38:29;98792.25;;;14.19;50.39
59531;BME280;45349;48.692;8.186;2023-04-26T10:41:27;98792.19;;;13.96;52.06
59531;BME280;45349;48.692;8.186;2023-04-26T10:43:56;98798.66;;;13.68;53.54
59531;BME280;45349;48.692;8.186;2023-04-26T10:46:37;98783.16;;;13.90;56.53
59531;BME280;45349;48.692;8.186;2023-04-26T10:49:15;98775.47;;;13.88;57.76
59531;BME280;45349;48.692;8.186;2023-04-26T10:52:10;98776.88;;;14.08;55.46
59531;BME280;45349;48.692;8.186;2023-04-26T10:54:45;98779.38;;;14.01;59.90
59531;BME280;45349;48.692;8.186;2023-04-26T10:57:13;98779.81;;;14.44;62.13
59531;BME280;45349;48.692;8.186;2023-04-26T11:00:15;98773.22;;;14.17;53.57
59531;BME280;45349;48.692;8.186;2023-04-26T11:02:56;98757.13;;;14.20;49.72
59531;BME280;45349;48.692;8.186;2023-04-26T11:05:36;98754.66;;;14.58;51.88
59531;BME280;45349;48.692;8.186;2023-04-26T11:08:08;98751.84;;;14.60;46.89
59531;BME280;45349;48.692;8.186;2023-04-26T11:13:08;98751.75;;;15.00;46.32
59531;BME280;45349;48.692;8.186;2023-04-26T11:15:35;98747.16;;;14.47;48.67
59531;BME280;45349;48.692;8.186;2023-04-26T11:18:03;98745.75;;;14.91;47.26
59531;BME280;45349;48.692;8.186;2023-04-26T11:20:30;98746.47;;;14.22;49.71
59531;BME280;45349;48.692;8.186;2023-04-26T11:22:57;98735.28;;;14.28;46.04
59531;BME280;45349;48.692;8.186;2023-04-26T11:25:24;98734.84;;;14.16;49.33
59531;BME280;45349;48.692;8.186;2023-04-26T11:27:56;98723.63;;;14.30;49.24
59531;BME280;45349;48.692;8.186;2023-04-26T11:30:24;98732.00;;;14.57;52.01
59531;BME280;45349;48.692;8.186;2023-04-26T11:32:51;98722.88;;;14.76;48.76
59531;BME280;45349;48.692;8.186;2023-04-26T11:35:20;98713.19;;;14.14;47.27
59531;BME280;45349;48.692;8.186;2023-04-26T11:37:47;98712.91;;;14.32;50.01
59531;BME280;45349;48.692;8.186;2023-04-26T11:40:16;98715.63;;;14.79;49.80
59531;BME280;45349;48.692;8.186;2023-04-26T11:42:43;98713.00;;;15.17;49.74
59531;BME280;45349;48.692;8.186;2023-04-26T11:45:10;98705.06;;;15.40;45.93
59531;BME280;45349;48.692;8.186;2023-04-26T11:47:39;98702.56;;;14.85;47.48
59531;BME280;45349;48.692;8.186;2023-04-26T11:50:07;98700.69;;;14.24;49.39
59531;BME280;45349;48.692;8.186;2023-04-26T11:52:34;98704.47;;;14.22;48.70
59531;BME280;45349;48.692;8.186;2023-04-26T11:55:01;98695.31;;;15.11;48.68
59531;BME280;45349;48.692;8.186;2023-04-26T11:57:30;98699.53;;;15.80;44.65
59531;BME280;45349;48.692;8.186;2023-04-26T12:00:11;98708.41;;;15.49;47.92
59531;BME280;45349;48.692;8.186;2023-04-26T12:02:43;98705.88;;;15.56;43.82
59531;BME280;45349;48.692;8.186;2023-04-26T12:05:10;98709.88;;;15.37;49.80
59531;BME280;45349;48.692;8.186;2023-04-26T12:07:38;98714.38;;;15.28;48.60
59531;BME280;45349;48.692;8.186;2023-04-26T12:10:13;98707.31;;;15.28;49.67
59531;BME280;45349;48.692;8.186;2023-04-26T12:12:43;98707.31;;;16.03;44.07
59531;BME280;45349;48.692;8.186;2023-04-26T12:15:11;98705.72;;;15.87;47.05
59531;BME280;45349;48.692;8.186;2023-04-26T12:17:37;98708.16;;;16.04;42.22
59531;BME280;45349;48.692;8.186;2023-04-26T12:20:10;98708.25;;;15.81;45.41
59531;BME280;45349;48.692;8.186;2023-04-26T12:22:37;98706.97;;;15.46;45.14
59531;BME280;45349;48.692;8.186;2023-04-26T12:25:04;98699.16;;;15.38;44.89
59531;BME280;45349;48.692;8.186;2023-04-26T12:27:32;98692.16;;;15.15;47.17
59531;BME280;45349;48.692;8.186;2023-04-26T12:29:58;98701.63;;;15.55;45.50
59531;BME280;45349;48.692;8.186;2023-04-26T12:32:25;98696.72;;;15.82;46.44
59531;BME280;45349;48.692;8.186;2023-04-26T12:34:53;98707.88;;;15.84;42.33
59531;BME280;45349;48.692;8.186;2023-04-26T12:37:21;98699.78;;;15.55;42.28
59531;BME280;45349;48.692;8.186;2023-04-26T12:39:52;98699.06;;;15.46;45.67
59531;BME280;45349;48.692;8.186;2023-04-26T12:42:19;98698.06;;;15.62;49.68
59531;BME280;45349;48.692;8.186;2023-04-26T12:45:10;98700.84;;;16.21;47.11
59531;BME280;45349;48.692;8.186;2023-04-26T12:47:37;98697.22;;;16.22;42.03
59531;BME280;45349;48.692;8.186;2023-04-26T12:50:04;98694.34;;;15.72;48.69
59531;BME280;45349;48.692;8.186;2023-04-26T12:52:32;98677.31;;;15.53;46.63
59531;BME280;45349;48.692;8.186;2023-04-26T12:54:59;98684.84;;;15.56;45.28
59531;BME280;45349;48.692;8.186;2023-04-26T12:57:26;98685.72;;;15.93;47.24
59531;BME280;45349;48.692;8.186;2023-04-26T12:59:53;98688.28;;;15.26;45.62
59531;BME280;45349;48.692;8.186;2023-04-26T13:02:24;98689.78;;;15.05;44.47
59531;BME280;45349;48.692;8.186;2023-04-26T13:04:52;98697.88;;;14.81;49.53
59531;BME280;45349;48.692;8.186;2023-04-26T13:07:19;98701.44;;;15.03;45.17
59531;BME280;45349;48.692;8.186;2023-04-26T13:09:54;98692.72;;;14.87;46.01
59531;BME280;45349;48.692;8.186;2023-04-26T13:12:20;98691.97;;;15.17;44.73
59531;BME280;45349;48.692;8.186;2023-04-26T13:14:52;98685.28;;;14.76;46.04
59531;BME280;45349;48.692;8.186;2023-04-26T13:17:19;98687.63;;;14.63;46.63